Time;durP1;ratioP1;P1;durP2;ratioP2;P2;SDS_P1;SDS_P2;PMS_P1;PMS_P2;Temp;Humidity;BMP_temperature;BMP_pressure;BME280_temperature;BME280_humidity;BME280_pressure;Samples;Min_cycle;Max_cycle;Signal;HPM_P1;HPM_P2
2024/03/16 00:03:09;;;;;;;5.30;4.80;;;13.10;42.70;;;;;;10360992;28;20231;-72
2024/03/16 00:08:13;;;;;;;5.50;5.00;;;13.20;42.70;;;;;;10376685;28;21219;-72
2024/03/16 00:13:16;;;;;;;4.87;4.47;;;13.30;42.80;;;;;;10357737;28;20225;-72
2024/03/16 00:18:19;;;;;;;5.10;4.60;;;13.30;42.80;;;;;;10358416;28;20248;-72
2024/03/16 00:23:22;;;;;;;4.13;3.73;;;13.40;42.90;;;;;;10370281;28;20351;-72
2024/03/16 00:28:26;;;;;;;4.70;3.20;;;13.40;42.90;;;;;;10356361;28;20692;-73
2024/03/16 00:33:29;;;;;;;3.03;2.30;;;13.40;42.90;;;;;;10359802;28;20794;-73
2024/03/16 00:38:32;;;;;;;2.53;2.20;;;13.50;43.00;;;;;;10359453;28;20237;-73
2024/03/16 00:43:35;;;;;;;3.33;1.73;;;13.50;43.00;;;;;;10367809;28;20900;-72
2024/03/16 00:48:40;;;;;;;2.03;1.83;;;13.60;43.10;;;;;;10364460;28;20823;-73
2024/03/16 00:53:43;;;;;;;3.93;2.10;;;13.60;43.10;;;;;;10336468;28;20219;-73
2024/03/16 00:58:46;;;;;;;3.33;2.40;;;13.80;43.30;;;;;;10345952;28;20248;-73
2024/03/16 01:03:49;;;;;;;2.37;2.13;;;13.90;43.40;;;;;;10349999;28;20913;-72
2024/03/16 01:08:53;;;;;;;2.40;2.20;;;13.90;43.00;;;;;;10353341;28;20650;-73
2024/03/16 01:13:56;;;;;;;2.17;2.03;;;13.90;42.70;;;;;;10356470;28;20218;-73
2024/03/16 01:18:59;;;;;;;2.40;2.10;;;13.90;42.40;;;;;;10356181;28;20241;-73
2024/03/16 01:24:03;;;;;;;2.20;1.97;;;13.90;42.20;;;;;;10349234;28;20242;-72
2024/03/16 01:29:10;;;;;;;2.17;1.80;;;13.90;42.20;;;;;;10339073;28;20230;-72
2024/03/16 01:34:13;;;;;;;1.97;1.43;;;13.80;41.90;;;;;;10372838;28;20226;-72
2024/03/16 01:39:17;;;;;;;2.80;1.60;;;13.80;41.90;;;;;;10364812;28;20232;-73
2024/03/16 01:44:20;;;;;;;1.87;1.77;;;13.70;42.00;;;;;;10382580;28;20237;-73
2024/03/16 01:49:23;;;;;;;2.20;1.60;;;13.70;42.00;;;;;;10376825;28;20242;-73
2024/03/16 01:54:27;;;;;;;1.90;1.70;;;13.60;42.20;;;;;;10382722;28;20272;-73
2024/03/16 01:59:30;;;;;;;1.50;1.40;;;13.60;42.30;;;;;;10364824;28;20317;-72
2024/03/16 02:04:33;;;;;;;1.53;1.43;;;13.60;42.10;;;;;;10344935;28;20309;-73
2024/03/16 02:09:36;;;;;;;2.07;1.60;;;13.50;42.20;;;;;;10321505;28;20612;-72
2024/03/16 02:14:40;;;;;;;2.40;1.77;;;13.50;42.40;;;;;;10340232;28;20424;-72
2024/03/16 02:19:47;;;;;;;1.60;1.50;;;13.40;42.60;;;;;;10326668;28;20313;-73
2024/03/16 02:24:50;;;;;;;1.80;1.70;;;13.30;42.80;;;;;;10340974;28;20232;-73
2024/03/16 02:29:53;;;;;;;1.67;1.57;;;13.30;42.80;;;;;;10348210;28;20292;-73
2024/03/16 02:34:57;;;;;;;1.60;1.50;;;13.30;42.80;;;;;;10346471;28;20616;-72
2024/03/16 02:40:00;;;;;;;1.93;1.60;;;13.20;42.70;;;;;;10346866;28;20309;-73
2024/03/16 02:45:03;;;;;;;2.77;1.40;;;13.20;42.70;;;;;;10350284;28;20230;-72
2024/03/16 02:50:10;;;;;;;1.37;1.27;;;13.10;43.00;;;;;;10345257;28;20230;-72
2024/03/16 02:55:13;;;;;;;2.80;1.20;;;13.10;43.20;;;;;;10349540;28;20234;-72
2024/03/16 03:00:18;;;;;;;1.30;1.00;;;13.10;43.10;;;;;;10347114;28;20270;-73
2024/03/16 03:05:23;;;;;;;1.10;1.00;;;13.10;43.20;;;;;;10337042;28;20242;-72
2024/03/16 03:10:27;;;;;;;1.00;0.80;;;13.00;43.30;;;;;;10332800;28;20234;-72
2024/03/16 03:15:30;;;;;;;1.63;0.80;;;13.00;43.30;;;;;;10344377;28;20230;-73
2024/03/16 03:20:33;;;;;;;0.60;0.60;;;13.00;43.40;;;;;;10337259;28;20250;-73
2024/03/16 03:25:37;;;;;;;1.30;0.70;;;12.90;43.30;;;;;;10349967;28;20313;-72
2024/03/16 03:30:41;;;;;;;0.60;0.60;;;12.90;43.40;;;;;;10346371;28;20226;-72
2024/03/16 03:35:44;;;;;;;0.53;0.53;;;12.90;43.50;;;;;;10345641;28;20223;-72
2024/03/16 03:40:48;;;;;;;0.60;0.60;;;12.80;43.50;;;;;;10342391;28;20238;-72
2024/03/16 03:45:52;;;;;;;0.50;0.50;;;12.90;43.50;;;;;;10338966;28;20230;-73
2024/03/16 03:50:55;;;;;;;0.87;0.60;;;12.80;43.40;;;;;;10345469;28;20606;-72
2024/03/16 03:55:59;;;;;;;0.60;0.60;;;12.80;43.40;;;;;;10341781;28;21026;-72
2024/03/16 04:01:03;;;;;;;0.50;0.50;;;12.80;43.40;;;;;;10343077;28;20232;-72
2024/03/16 04:06:06;;;;;;;0.50;0.50;;;12.70;43.30;;;;;;10346346;28;20305;-72
2024/03/16 04:11:10;;;;;;;0.60;0.60;;;12.70;43.20;;;;;;10328987;28;20230;-72
2024/03/16 04:16:14;;;;;;;0.40;0.40;;;12.70;42.90;;;;;;10345179;28;20281;-72
2024/03/16 04:21:18;;;;;;;0.40;0.40;;;12.70;42.70;;;;;;10344403;28;20982;-72
2024/03/16 04:26:21;;;;;;;0.40;0.40;;;12.60;42.50;;;;;;10335924;28;20737;-72
2024/03/16 04:31:24;;;;;;;0.43;0.43;;;12.60;42.60;;;;;;10360247;28;20236;-72
2024/03/16 04:36:27;;;;;;;0.77;0.47;;;12.50;42.50;;;;;;10384418;28;20329;-72
2024/03/16 04:41:31;;;;;;;0.40;0.40;;;12.40;42.30;;;;;;10376017;28;20384;-73
2024/03/16 04:46:36;;;;;;;0.40;0.40;;;12.40;42.50;;;;;;10386303;28;20711;-72
2024/03/16 04:51:39;;;;;;;1.03;0.50;;;12.30;42.40;;;;;;10391757;28;20244;-73
2024/03/16 04:56:43;;;;;;;0.40;0.40;;;12.20;42.40;;;;;;10369807;28;20254;-73
2024/03/16 05:01:46;;;;;;;0.80;0.50;;;12.20;42.40;;;;;;10377477;28;20225;-73
2024/03/16 05:06:49;;;;;;;0.40;0.40;;;12.10;42.20;;;;;;10373105;28;20545;-73
2024/03/16 05:11:53;;;;;;;1.20;0.60;;;12.10;42.30;;;;;;10381067;28;20267;-73
2024/03/16 05:16:57;;;;;;;1.10;0.60;;;12.10;42.10;;;;;;10380388;28;20230;-72
2024/03/16 05:22:00;;;;;;;0.70;0.50;;;12.20;41.90;;;;;;10380314;28;20320;-72
2024/03/16 05:27:10;;;;;;;1.03;0.40;;;12.10;41.80;;;;;;10385270;28;20312;-72
2024/03/16 05:32:14;;;;;;;3.20;2.90;;;12.00;41.70;;;;;;10366516;28;20233;-72
2024/03/16 05:37:18;;;;;;;2.07;1.70;;;12.00;41.80;;;;;;10333076;28;20596;-72
2024/03/16 05:42:21;;;;;;;4.33;2.90;;;11.90;42.10;;;;;;10385266;28;20708;-73
2024/03/16 05:47:24;;;;;;;3.47;2.60;;;11.90;42.30;;;;;;10366255;28;21402;-72
2024/03/16 05:52:28;;;;;;;2.30;1.30;;;11.90;42.40;;;;;;10381737;28;20234;-72
2024/03/16 05:57:31;;;;;;;1.00;1.00;;;11.80;42.50;;;;;;10346713;28;20313;-72
2024/03/16 06:02:34;;;;;;;0.67;0.67;;;11.80;42.60;;;;;;10371844;28;20229;-72
2024/03/16 06:07:38;;;;;;;0.90;0.90;;;11.90;42.70;;;;;;10386205;28;20221;-73
2024/03/16 06:12:41;;;;;;;1.20;1.10;;;11.90;42.90;;;;;;10358125;28;20258;-73
2024/03/16 06:17:45;;;;;;;0.80;0.80;;;12.00;42.80;;;;;;10381924;28;20313;-72
2024/03/16 06:22:48;;;;;;;0.93;0.80;;;12.00;42.80;;;;;;10396431;28;20776;-72
2024/03/16 06:27:54;;;;;;;1.43;0.70;;;12.00;42.90;;;;;;10391744;28;20232;-73
2024/03/16 06:33:08;;;;;;;1.10;1.10;;;12.00;43.10;;;;;;10377515;28;20233;-73
2024/03/16 06:38:12;;;;;;;0.90;0.90;;;12.10;43.00;;;;;;10347404;28;20230;-73
2024/03/16 06:43:15;;;;;;;1.23;0.70;;;12.20;43.10;;;;;;10354413;28;20229;-72
2024/03/16 06:48:18;;;;;;;1.07;0.60;;;12.20;42.90;;;;;;10348184;28;21180;-72
2024/03/16 06:53:22;;;;;;;1.30;0.60;;;12.30;43.00;;;;;;10363973;28;20272;-72
2024/03/16 06:58:25;;;;;;;0.50;0.50;;;12.30;43.30;;;;;;10370668;28;20245;-73
2024/03/16 07:03:28;;;;;;;0.67;0.57;;;12.40;43.20;;;;;;10369700;28;20226;-73
2024/03/16 07:08:32;;;;;;;0.67;0.67;;;12.40;43.10;;;;;;10360536;28;20241;-73
2024/03/16 07:13:36;;;;;;;0.60;0.60;;;12.50;43.20;;;;;;10343862;28;20223;-72
2024/03/16 07:18:39;;;;;;;0.90;0.90;;;12.60;43.10;;;;;;10361739;28;20238;-73
2024/03/16 07:23:43;;;;;;;2.63;0.97;;;12.60;42.90;;;;;;10356221;28;20321;-73
2024/03/16 07:28:47;;;;;;;1.40;1.30;;;12.70;43.10;;;;;;10361769;28;20234;-73
2024/03/16 07:33:50;;;;;;;2.17;1.87;;;12.70;43.20;;;;;;10357685;28;20318;-73
2024/03/16 07:38:54;;;;;;;1.70;1.50;;;12.70;43.30;;;;;;10382594;28;20233;-73
2024/03/16 07:43:57;;;;;;;1.53;1.10;;;12.70;43.20;;;;;;10383712;28;20227;-73
2024/03/16 07:49:00;;;;;;;0.80;0.80;;;12.80;43.30;;;;;;10384224;28;20312;-73
2024/03/16 07:54:04;;;;;;;0.90;0.90;;;12.90;43.20;;;;;;10387907;28;20288;-72
2024/03/16 07:59:09;;;;;;;1.63;1.00;;;12.90;43.40;;;;;;10359463;28;20239;-72
2024/03/16 08:04:12;;;;;;;1.00;0.90;;;13.00;43.60;;;;;;10328348;28;20239;-72
2024/03/16 08:09:16;;;;;;;1.00;1.00;;;13.00;43.70;;;;;;10365358;28;20347;-73
2024/03/16 08:14:20;;;;;;;1.20;1.07;;;13.10;43.80;;;;;;10347347;28;20230;-73
2024/03/16 08:19:24;;;;;;;0.93;0.90;;;13.20;43.70;;;;;;10343126;28;20230;-72
2024/03/16 08:24:27;;;;;;;1.47;1.37;;;13.30;43.50;;;;;;10338199;28;20230;-74
2024/03/16 08:29:31;;;;;;;1.80;1.50;;;13.40;43.50;;;;;;10338308;28;20222;-73
2024/03/16 08:34:34;;;;;;;1.00;1.00;;;13.40;43.20;;;;;;10341094;28;20231;-73
2024/03/16 08:39:38;;;;;;;2.27;1.20;;;13.50;43.20;;;;;;10342996;28;20231;-73
2024/03/16 08:44:41;;;;;;;1.10;1.00;;;13.50;43.80;;;;;;10335443;28;20293;-73
2024/03/16 08:49:45;;;;;;;2.50;1.03;;;13.60;43.10;;;;;;10342707;28;20246;-73
2024/03/16 08:54:48;;;;;;;1.70;1.10;;;13.60;43.20;;;;;;10356805;28;20233;-73
2024/03/16 08:59:51;;;;;;;2.73;1.20;;;13.70;43.40;;;;;;10354275;28;20253;-73
2024/03/16 09:04:55;;;;;;;1.30;1.20;;;13.80;43.30;;;;;;10353405;28;20223;-74
2024/03/16 09:09:59;;;;;;;1.50;1.10;;;13.90;43.40;;;;;;10356954;28;20622;-73
2024/03/16 09:15:04;;;;;;;2.27;1.63;;;13.90;43.40;;;;;;10355547;28;20289;-73
2024/03/16 09:20:10;;;;;;;1.10;1.10;;;14.00;43.40;;;;;;10357758;28;20235;-73
2024/03/16 09:25:14;;;;;;;1.60;1.50;;;14.00;43.40;;;;;;10349759;28;20250;-73
2024/03/16 09:30:18;;;;;;;6.13;5.37;;;14.10;43.60;;;;;;10350630;28;20723;-73
2024/03/16 09:35:22;;;;;;;6.83;5.33;;;14.10;43.60;;;;;;10366182;28;20286;-74
2024/03/16 09:40:25;;;;;;;2.60;2.27;;;14.10;43.60;;;;;;10363768;28;20716;-73
2024/03/16 09:45:28;;;;;;;2.27;1.57;;;14.20;43.60;;;;;;10359366;28;20241;-73
2024/03/16 09:50:31;;;;;;;3.10;1.80;;;14.30;43.60;;;;;;10348670;28;20246;-73
2024/03/16 09:55:33;;;;;;;2.00;1.40;;;14.40;43.70;;;;;;10372963;28;20250;-73
2024/03/16 10:00:37;;;;;;;3.00;2.30;;;14.50;43.90;;;;;;10369284;28;20245;-74
2024/03/16 10:05:40;;;;;;;1.90;1.30;;;14.50;43.90;;;;;;10374026;28;20249;-73
2024/03/16 10:10:42;;;;;;;2.53;1.40;;;14.70;43.40;;;;;;10376120;28;20264;-73
2024/03/16 10:15:45;;;;;;;1.50;1.40;;;14.70;43.20;;;;;;10346827;28;20238;-73
2024/03/16 10:20:47;;;;;;;1.43;1.23;;;14.80;43.30;;;;;;10331453;28;20655;-73
2024/03/16 10:25:49;;;;;;;0.97;0.97;;;14.90;43.30;;;;;;10325511;28;20304;-73
2024/03/16 10:30:52;;;;;;;1.40;1.30;;;15.00;43.50;;;;;;10327515;28;20308;-77
2024/03/16 10:35:56;;;;;;;1.20;1.10;;;15.00;43.30;;;;;;10342157;28;20296;-73
2024/03/16 10:40:59;;;;;;;1.23;1.10;;;15.00;42.90;;;;;;10365439;28;20321;-74
2024/03/16 10:46:02;;;;;;;1.30;1.20;;;15.10;43.20;;;;;;10360402;28;20305;-72
2024/03/16 10:51:05;;;;;;;1.70;1.43;;;15.10;44.10;;;;;;10342589;28;20323;-73
2024/03/16 10:56:07;;;;;;;2.13;1.70;;;15.10;44.00;;;;;;10347046;28;20272;-73
2024/03/16 11:01:11;;;;;;;1.43;1.10;;;15.10;43.70;;;;;;10347655;28;20259;-73
2024/03/16 11:06:18;;;;;;;1.50;1.40;;;15.10;43.20;;;;;;10346304;28;20246;-73
2024/03/16 11:11:21;;;;;;;1.40;1.30;;;15.00;44.30;;;;;;10348191;28;20250;-73
2024/03/16 11:16:27;;;;;;;1.43;1.00;;;14.90;43.70;;;;;;10353268;28;20246;-73
2024/03/16 11:21:31;;;;;;;1.50;1.20;;;14.90;44.30;;;;;;10336664;28;20651;-72
2024/03/16 11:26:38;;;;;;;1.63;1.40;;;14.80;44.20;;;;;;10342628;28;20243;-72
2024/03/16 11:31:41;;;;;;;1.77;1.07;;;14.80;44.50;;;;;;10320911;28;20254;-72
2024/03/16 11:36:44;;;;;;;1.60;1.50;;;14.70;44.10;;;;;;10356734;28;20253;-72
2024/03/16 11:41:48;;;;;;;1.60;1.17;;;14.60;44.00;;;;;;10341775;28;20257;-72
2024/03/16 11:46:52;;;;;;;2.40;1.50;;;14.60;44.00;;;;;;10343938;28;20241;-73
2024/03/16 11:51:55;;;;;;;2.00;1.53;;;14.50;43.90;;;;;;10343569;28;20254;-73
2024/03/16 11:56:57;;;;;;;1.40;1.30;;;14.30;43.70;;;;;;10354850;28;20234;-73
2024/03/16 12:02:00;;;;;;;1.87;1.07;;;14.10;43.60;;;;;;10353333;28;20246;-73
2024/03/16 12:07:02;;;;;;;1.67;0.87;;;14.00;43.60;;;;;;10357223;28;20280;-71
2024/03/16 12:12:07;;;;;;;1.30;1.00;;;13.80;43.80;;;;;;10338734;28;20255;-72
2024/03/16 12:17:09;;;;;;;0.70;0.70;;;13.70;44.20;;;;;;10329981;28;20238;-72
2024/03/16 12:22:14;;;;;;;1.07;0.80;;;13.60;44.40;;;;;;10342408;28;20263;-72
2024/03/16 12:27:17;;;;;;;0.90;0.90;;;13.50;45.20;;;;;;10330113;28;20686;-73
2024/03/16 12:32:20;;;;;;;1.20;1.10;;;13.50;45.00;;;;;;10345048;28;20296;-73
2024/03/16 12:37:23;;;;;;;1.67;1.30;;;13.50;45.20;;;;;;10313373;28;20281;-72
2024/03/16 12:42:26;;;;;;;1.00;0.90;;;13.60;45.40;;;;;;10339734;28;20299;-72
2024/03/16 12:47:28;;;;;;;0.90;0.90;;;13.60;45.30;;;;;;10325236;28;20273;-73
2024/03/16 12:52:31;;;;;;;0.80;0.80;;;13.70;45.80;;;;;;10330357;28;20252;-73
2024/03/16 12:57:33;;;;;;;0.80;0.80;;;13.80;46.00;;;;;;10356225;28;20245;-74
2024/03/16 13:02:37;;;;;;;1.30;1.20;;;13.90;46.20;;;;;;10367406;28;20303;-74
2024/03/16 13:07:39;;;;;;;1.13;1.03;;;14.10;46.50;;;;;;10374886;28;20256;-74
2024/03/16 13:12:42;;;;;;;1.10;1.00;;;14.20;46.80;;;;;;10368639;28;20327;-74
2024/03/16 13:17:46;;;;;;;1.30;1.20;;;14.50;47.20;;;;;;10369174;28;20719;-74
2024/03/16 13:22:49;;;;;;;1.43;1.20;;;14.80;46.50;;;;;;10368570;28;20841;-74
2024/03/16 13:27:51;;;;;;;1.57;1.00;;;15.00;46.00;;;;;;10369103;28;20245;-74
2024/03/16 13:32:53;;;;;;;1.40;1.30;;;15.10;45.70;;;;;;10330727;28;20248;-75
2024/03/16 13:37:56;;;;;;;1.40;1.30;;;15.20;45.70;;;;;;10332288;28;20253;-74
2024/03/16 13:42:58;;;;;;;1.40;1.30;;;15.30;45.30;;;;;;10346771;28;20300;-74
2024/03/16 13:48:00;;;;;;;1.20;1.10;;;15.40;45.50;;;;;;10329599;28;20261;-74
2024/03/16 13:53:03;;;;;;;1.40;1.30;;;15.50;45.40;;;;;;10378628;28;20323;-73
2024/03/16 13:58:05;;;;;;;2.30;1.50;;;15.50;45.10;;;;;;10376730;28;20762;-74
2024/03/16 14:03:07;;;;;;;0.97;0.97;;;15.50;45.00;;;;;;10367332;28;20258;-74
2024/03/16 14:08:09;;;;;;;1.60;1.23;;;15.50;44.80;;;;;;10346011;28;20253;-74
2024/03/16 14:13:12;;;;;;;1.07;1.00;;;15.40;44.70;;;;;;10348691;28;20256;-74
2024/03/16 14:18:14;;;;;;;1.47;1.10;;;15.30;44.60;;;;;;10347052;28;20307;-74
2024/03/16 14:23:16;;;;;;;2.43;1.33;;;15.30;44.60;;;;;;10366993;28;20304;-75
2024/03/16 14:28:19;;;;;;;2.47;1.47;;;15.30;44.60;;;;;;10347302;28;20258;-74
2024/03/16 14:33:21;;;;;;;1.10;1.00;;;15.30;44.60;;;;;;10322482;28;20239;-74
2024/03/16 14:38:24;;;;;;;1.37;1.00;;;15.30;44.60;;;;;;10349594;28;20255;-74
2024/03/16 14:43:27;;;;;;;2.63;1.37;;;15.30;44.60;;;;;;10371383;28;20262;-74
2024/03/16 14:48:29;;;;;;;1.97;1.37;;;15.30;44.60;;;;;;10370714;28;20312;-75
2024/03/16 14:53:32;;;;;;;1.30;1.20;;;15.30;44.60;;;;;;10366610;28;20257;-75
2024/03/16 14:58:34;;;;;;;1.90;1.53;;;15.40;44.70;;;;;;10356276;28;20689;-75
2024/03/16 15:03:36;;;;;;;1.83;1.53;;;15.50;44.80;;;;;;10370289;28;20284;-75
2024/03/16 15:08:38;;;;;;;2.07;1.87;;;15.60;44.90;;;;;;10351164;28;21237;-75
2024/03/16 15:13:41;;;;;;;1.20;1.10;;;15.70;44.30;;;;;;10342998;28;20314;-75
2024/03/16 15:18:45;;;;;;;1.30;1.20;;;15.80;43.80;;;;;;10379552;28;20806;-74
2024/03/16 15:23:47;;;;;;;1.27;1.10;;;15.90;43.30;;;;;;10372555;28;20250;-75
2024/03/16 15:28:52;;;;;;;1.00;1.00;;;15.90;43.00;;;;;;10351508;28;20246;-75
2024/03/16 15:33:55;;;;;;;1.20;1.10;;;16.00;42.70;;;;;;10375146;28;20237;-75
2024/03/16 15:38:57;;;;;;;1.97;1.00;;;16.00;42.50;;;;;;10353213;28;20374;-75
2024/03/16 15:43:59;;;;;;;1.60;1.50;;;16.00;42.00;;;;;;10345388;28;20304;-75
2024/03/16 15:49:03;;;;;;;1.60;1.50;;;16.00;42.10;;;;;;10372563;28;20303;-73
2024/03/16 15:54:05;;;;;;;0.80;0.80;;;16.00;41.80;;;;;;10332402;28;20250;-75
2024/03/16 15:59:07;;;;;;;1.80;0.70;;;16.00;40.90;;;;;;10334610;28;21036;-75
2024/03/16 16:04:10;;;;;;;0.63;0.60;;;16.00;40.40;;;;;;10351012;28;20261;-75
2024/03/16 16:09:13;;;;;;;0.80;0.70;;;15.90;40.60;;;;;;10367025;28;20269;-75
2024/03/16 16:14:15;;;;;;;0.80;0.80;;;15.90;40.70;;;;;;10379016;28;20254;-75
2024/03/16 16:19:18;;;;;;;1.80;0.90;;;15.90;40.90;;;;;;10349040;28;20261;-75
2024/03/16 16:24:20;;;;;;;1.23;1.07;;;15.80;41.00;;;;;;10351802;28;20256;-75
2024/03/16 16:29:23;;;;;;;1.73;1.40;;;15.90;41.10;;;;;;10363844;28;20250;-74
2024/03/16 16:34:25;;;;;;;2.10;1.53;;;15.90;41.40;;;;;;10366722;28;20245;-74
2024/03/16 16:39:28;;;;;;;1.93;1.60;;;15.90;41.20;;;;;;10360587;28;20642;-75
2024/03/16 16:44:30;;;;;;;1.50;1.40;;;15.90;40.60;;;;;;10334349;28;20261;-75
2024/03/16 16:49:32;;;;;;;2.87;1.23;;;16.00;40.60;;;;;;10368381;28;20242;-75
2024/03/16 16:54:34;;;;;;;1.00;1.00;;;15.90;40.40;;;;;;10353909;28;20339;-75
2024/03/16 16:59:37;;;;;;;3.00;2.70;;;15.80;40.30;;;;;;10348979;28;20242;-74
2024/03/16 17:04:40;;;;;;;1.20;1.10;;;15.80;40.50;;;;;;10351205;28;20745;-74
2024/03/16 17:09:42;;;;;;;0.70;0.70;;;15.70;39.60;;;;;;10370027;28;20282;-75
2024/03/16 17:14:45;;;;;;;0.60;0.60;;;15.60;38.80;;;;;;10364979;28;20253;-74
2024/03/16 17:19:47;;;;;;;0.40;0.40;;;15.40;39.30;;;;;;10375687;28;20954;-74
2024/03/16 17:24:50;;;;;;;1.50;0.70;;;15.10;39.90;;;;;;10339499;28;20332;-74
2024/03/16 17:29:52;;;;;;;0.50;0.50;;;14.90;40.30;;;;;;10348410;28;20250;-74
2024/03/16 17:34:55;;;;;;;0.60;0.50;;;14.70;40.60;;;;;;10330404;28;20724;-74
2024/03/16 17:39:57;;;;;;;0.60;0.60;;;14.60;41.00;;;;;;10366436;28;20261;-75
2024/03/16 17:45:00;;;;;;;0.70;0.70;;;14.60;41.10;;;;;;10329459;28;20254;-74
2024/03/16 17:50:02;;;;;;;0.90;0.90;;;14.50;41.30;;;;;;10328893;28;21118;-74
2024/03/16 17:55:05;;;;;;;0.70;0.70;;;14.40;41.40;;;;;;10354193;28;20661;-74
2024/03/16 18:00:13;;;;;;;0.70;0.70;;;14.40;41.70;;;;;;10347193;28;20258;-75
2024/03/16 18:05:15;;;;;;;0.60;0.60;;;14.30;41.80;;;;;;10341598;28;20253;-74
2024/03/16 18:10:18;;;;;;;0.70;0.70;;;14.20;42.00;;;;;;10349497;28;20716;-74
2024/03/16 18:15:21;;;;;;;1.30;0.97;;;14.10;42.10;;;;;;10324436;28;20259;-74
2024/03/16 18:20:25;;;;;;;1.27;1.13;;;14.10;42.20;;;;;;10334459;28;20258;-75
2024/03/16 18:25:29;;;;;;;1.50;1.40;;;14.10;42.40;;;;;;10347500;28;20255;-74
2024/03/16 18:30:31;;;;;;;1.40;1.40;;;14.10;42.70;;;;;;10345719;28;20245;-75
2024/03/16 18:35:33;;;;;;;1.70;1.57;;;14.10;42.60;;;;;;10352198;28;20242;-75
2024/03/16 18:40:37;;;;;;;1.37;1.27;;;14.10;42.60;;;;;;10346818;28;20257;-75
2024/03/16 18:45:40;;;;;;;1.33;1.10;;;14.10;43.00;;;;;;10354930;28;20252;-75
2024/03/16 18:50:42;;;;;;;1.30;1.20;;;13.90;42.70;;;;;;10347317;28;20304;-74
2024/03/16 18:55:46;;;;;;;1.37;1.27;;;13.70;43.20;;;;;;10352269;28;20242;-74
2024/03/16 19:00:49;;;;;;;2.10;1.90;;;13.60;43.10;;;;;;10346328;28;20246;-75
2024/03/16 19:05:51;;;;;;;1.63;1.53;;;13.50;43.00;;;;;;10384893;28;20250;-75
2024/03/16 19:10:56;;;;;;;1.80;1.60;;;13.30;42.80;;;;;;10382415;28;20264;-74
2024/03/16 19:15:58;;;;;;;1.63;1.53;;;13.20;42.80;;;;;;10356041;28;20246;-75
2024/03/16 19:21:00;;;;;;;2.03;1.83;;;13.20;42.70;;;;;;10370018;28;20246;-75
2024/03/16 19:26:06;;;;;;;1.80;1.70;;;13.10;42.70;;;;;;10350520;28;20720;-74
2024/03/16 19:31:08;;;;;;;1.80;1.70;;;13.10;42.80;;;;;;10349797;28;20259;-75
2024/03/16 19:36:10;;;;;;;1.77;1.67;;;13.10;42.70;;;;;;10368929;28;20254;-75
2024/03/16 19:41:15;;;;;;;2.70;2.30;;;13.10;42.70;;;;;;10362819;28;20337;-75
2024/03/16 19:46:17;;;;;;;3.23;2.80;;;13.10;42.70;;;;;;10350556;28;20262;-74
2024/03/16 19:51:19;;;;;;;2.60;2.40;;;13.20;42.70;;;;;;10349132;28;20308;-75
2024/03/16 19:56:23;;;;;;;3.40;2.40;;;13.10;42.70;;;;;;10367745;28;20250;-75
2024/03/16 20:01:25;;;;;;;3.13;2.10;;;13.10;42.70;;;;;;10386253;28;20261;-75
2024/03/16 20:06:27;;;;;;;3.70;2.50;;;13.10;42.70;;;;;;10385482;28;20299;-75
2024/03/16 20:11:30;;;;;;;3.07;2.77;;;13.00;42.60;;;;;;10387505;28;20249;-75
2024/03/16 20:16:33;;;;;;;2.73;2.50;;;13.00;42.60;;;;;;10384015;28;20303;-75
2024/03/16 20:21:36;;;;;;;2.37;2.23;;;13.00;42.60;;;;;;10385144;28;20686;-75
2024/03/16 20:26:39;;;;;;;2.87;2.67;;;13.00;42.70;;;;;;10390894;28;20256;-75
2024/03/16 20:31:42;;;;;;;3.70;3.40;;;12.90;43.20;;;;;;10382357;28;20280;-75
2024/03/16 20:36:44;;;;;;;3.10;2.90;;;12.90;43.10;;;;;;10379852;28;20649;-75
2024/03/16 20:41:47;;;;;;;2.80;2.60;;;12.80;43.20;;;;;;10396308;28;20303;-75
2024/03/16 20:46:49;;;;;;;2.43;2.33;;;12.80;43.50;;;;;;10390249;28;20253;-75
2024/03/16 20:51:52;;;;;;;3.20;3.00;;;12.90;43.30;;;;;;10388494;28;20250;-75
2024/03/16 20:56:56;;;;;;;4.33;4.03;;;12.90;43.20;;;;;;10403032;28;20711;-75
2024/03/16 21:01:58;;;;;;;3.70;3.23;;;12.90;43.20;;;;;;10388826;28;20279;-75
2024/03/16 21:07:01;;;;;;;6.13;4.10;;;13.00;42.90;;;;;;10393957;28;20233;-75
2024/03/16 21:12:08;;;;;;;3.37;3.17;;;13.00;42.60;;;;;;10387248;28;20245;-75
2024/03/16 21:17:10;;;;;;;3.93;2.93;;;12.90;42.50;;;;;;10388749;28;20396;-75
2024/03/16 21:22:13;;;;;;;3.37;3.07;;;12.80;42.40;;;;;;10390434;28;20257;-75
2024/03/16 21:27:16;;;;;;;3.70;3.40;;;12.60;42.40;;;;;;10392947;28;20298;-75
2024/03/16 21:32:18;;;;;;;3.03;2.80;;;12.50;42.70;;;;;;10398086;28;20261;-75
2024/03/16 21:37:21;;;;;;;3.43;3.23;;;12.50;42.80;;;;;;10417273;28;20253;-75
2024/03/16 21:42:24;;;;;;;3.30;3.10;;;12.40;42.80;;;;;;10402623;28;20253;-75
2024/03/16 21:47:26;;;;;;;4.40;4.00;;;12.30;42.90;;;;;;10403224;28;20750;-75
2024/03/16 21:52:29;;;;;;;7.10;4.10;;;12.30;42.90;;;;;;10403794;28;20257;-75
2024/03/16 21:57:33;;;;;;;5.67;3.80;;;12.20;42.90;;;;;;10398779;28;20290;-75
2024/03/16 22:02:35;;;;;;;5.63;4.27;;;12.20;43.20;;;;;;10398417;28;20303;-75
2024/03/16 22:07:37;;;;;;;4.47;4.07;;;12.20;43.10;;;;;;10408410;28;20255;-75
2024/03/16 22:12:41;;;;;;;4.47;3.90;;;12.20;43.10;;;;;;10406204;28;20257;-75
2024/03/16 22:17:43;;;;;;;4.27;3.83;;;12.20;43.30;;;;;;10393313;28;20237;-75
2024/03/16 22:22:50;;;;;;;4.67;4.00;;;12.20;43.10;;;;;;10395907;28;20296;-75
2024/03/16 22:27:53;;;;;;;5.17;4.70;;;12.20;43.20;;;;;;10421856;28;20726;-75
2024/03/16 22:32:56;;;;;;;4.87;4.47;;;12.20;43.00;;;;;;10387371;28;20739;-75
2024/03/16 22:37:58;;;;;;;4.80;4.30;;;12.20;42.90;;;;;;10397143;28;20272;-75
2024/03/16 22:43:05;;;;;;;4.53;4.10;;;12.20;42.90;;;;;;10394124;28;20252;-75
2024/03/16 22:48:08;;;;;;;3.57;3.27;;;12.20;42.90;;;;;;10391626;28;20753;-75
2024/03/16 22:53:11;;;;;;;6.77;6.07;;;12.20;42.60;;;;;;10392139;28;20625;-75
2024/03/16 22:58:14;;;;;;;7.30;6.60;;;12.20;42.20;;;;;;10393791;28;21224;-75
2024/03/16 23:03:16;;;;;;;13.40;8.80;;;12.20;42.20;;;;;;10378720;28;20323;-75
2024/03/16 23:08:20;;;;;;;6.10;5.43;;;12.10;41.80;;;;;;10368907;28;20269;-75
2024/03/16 23:13:25;;;;;;;5.03;4.63;;;12.00;42.10;;;;;;10363648;28;20301;-75
2024/03/16 23:18:27;;;;;;;5.00;4.60;;;11.90;42.40;;;;;;10344867;28;20258;-75
2024/03/16 23:23:30;;;;;;;4.80;4.37;;;11.80;42.50;;;;;;10366359;28;20257;-75
2024/03/16 23:28:33;;;;;;;4.57;4.17;;;11.80;42.70;;;;;;10358889;28;20250;-74
2024/03/16 23:33:36;;;;;;;4.10;3.80;;;11.70;43.00;;;;;;10349863;28;20242;-74
2024/03/16 23:38:38;;;;;;;4.20;3.90;;;11.70;43.00;;;;;;10348269;28;20315;-74
2024/03/16 23:43:51;;;;;;;4.13;3.83;;;11.80;43.10;;;;;;10362249;28;20944;-74
2024/03/16 23:48:53;;;;;;;4.10;3.80;;;11.80;43.40;;;;;;10352435;28;20727;-74
2024/03/16 23:53:55;;;;;;;4.70;4.30;;;11.80;43.00;;;;;;10354585;28;20250;-74
2024/03/16 23:58:59;;;;;;;4.37;3.97;;;11.90;43.00;;;;;;10365002;28;20308;-74
